Stations météo

réclame
Mon MeteoGroup
Desenzano, Italie (16089): Température de l'air & dewpoint: 11.10.2017 17:00:00 - 17.10.2017 17:00:00 (CEST)Desenzano, Italie (16089): Vitesse du vent: 11.10.2017 17:00:00 - 17.10.2017 17:00:00 (CEST)Desenzano, Italie (16089): Direction du vent: 11.10.2017 17:00:00 - 17.10.2017 17:00:00 (CEST)Desenzano, Italie (16089): reduced air pressure: 11.10.2017 17:00:00 - 17.10.2017 17:00:00 (CEST)Desenzano, Italie (16089): Quantités de précipitations: 11.10.2017 17:00:00 - 17.10.2017 17:00:00 (CEST)
Date & Time tt [°C] td [°C] ff [km/h] ff [knt] dd ppp [hPa] rr [mm]
17.10.2017 17:00:00 - - - - - - -
17.10.2017 16:00:00 22,2 15,2 0 0 N 1023,2 -
17.10.2017 15:00:00 22,1 14,4 0 0 N 1023,8 -
17.10.2017 14:00:00 23,6 15,3 0 0 N 1024,6 0,0
17.10.2017 13:00:00 21,3 14,1 5 3 NNE 1025,4 -
17.10.2017 12:00:00 20,5 13,1 8 4 NNE 1026,0 -
17.10.2017 11:00:00 20,0 13,6 11 6 N 1026,1 -
17.10.2017 10:00:00 19,2 14,2 11 6 N 1026,2 -
17.10.2017 09:00:00 18,6 13,4 15 8 N 1026,1 -
17.10.2017 08:00:00 18,6 14,8 9 5 NNE 1025,6 0,0
17.10.2017 07:00:00 17,5 14,9 11 6 WNW 1025,6 -
17.10.2017 06:00:00 13,5 12,0 2 1 W 1025,8 -
17.10.2017 05:00:00 13,7 12,2 0 0 N 1025,9 -
17.10.2017 04:00:00 13,8 12,3 0 0 N 1026,1 -
17.10.2017 03:00:00 13,9 12,9 0 0 N 1026,6 -
17.10.2017 02:00:00 14,3 13,3 0 0 N 1026,8 0,0
17.10.2017 01:00:00 14,8 13,6 0 0 N 1026,9 -
17.10.2017 00:00:00 15,3 13,9 0 0 N 1027,0 -
16.10.2017 23:00:00 15,7 14,2 0 0 N 1026,9 -
16.10.2017 22:00:00 16,5 14,6 0 0 N 1026,5 -
16.10.2017 21:00:00 16,9 13,9 0 0 N 1026,5 -
16.10.2017 20:00:00 17,8 14,8 0 0 N 1026,3 0,0
16.10.2017 19:00:00 19,9 17,0 0 0 N 1025,9 -
16.10.2017 18:00:00 22,0 19,1 0 0 N 1025,8 -
16.10.2017 17:00:00 23,2 18,2 0 0 N 1026,0 -
16.10.2017 16:00:00 23,6 18,4 4 2 ENE 1026,1 -
16.10.2017 15:00:00 24,0 18,3 4 2 NE 1026,4 -
16.10.2017 14:00:00 23,1 17,9 0 0 N 1027,0 0,0
16.10.2017 13:00:00 22,0 15,5 0 0 N 1027,6 -
16.10.2017 12:00:00 21,6 16,5 0 0 N 1027,8 -
16.10.2017 11:00:00 20,7 16,2 0 0 N 1027,8 -
16.10.2017 10:00:00 18,9 17,2 0 0 N 1028,0 -
16.10.2017 09:00:00 15,3 14,4 0 0 N 1027,9 -
16.10.2017 08:00:00 14,4 12,6 0 0 N 1027,4 0,0
16.10.2017 07:00:00 16,1 15,1 4 2 W 1027,2 -
16.10.2017 06:00:00 15,4 13,2 2 1 WSW 1027,4 -
16.10.2017 05:00:00 15,7 15,6 8 4 NW 1027,6 -
16.10.2017 04:00:00 14,3 13,1 2 1 NNE 1027,6 -
16.10.2017 03:00:00 14,8 13,8 0 0 N 1028,1 -
16.10.2017 02:00:00 15,0 13,6 0 0 N 1028,1 0,0
16.10.2017 01:00:00 15,7 14,0 0 0 N 1028,1 -
16.10.2017 00:00:00 15,8 13,9 0 0 N 1028,0 -
15.10.2017 23:00:00 16,0 13,9 0 0 N 1028,0 -
15.10.2017 22:00:00 16,5 14,1 0 0 N 1027,6 -
15.10.2017 21:00:00 17,1 13,5 0 0 N 1027,4 -
15.10.2017 20:00:00 18,0 13,8 0 0 N 1027,2 0,0
15.10.2017 19:00:00 20,0 15,1 0 0 N 1026,7 -
15.10.2017 18:00:00 21,7 15,7 0 0 N 1026,4 -
15.10.2017 17:00:00 22,7 18,8 4 2 WNW 1026,6 -
15.10.2017 16:00:00 22,7 18,6 8 4 NE 1026,8 -
15.10.2017 15:00:00 22,9 19,0 2 1 NE 1027,2 -
15.10.2017 14:00:00 22,1 16,5 4 2 NNE 1027,9 0,0
15.10.2017 13:00:00 21,8 15,6 2 1 N 1028,5 -
15.10.2017 12:00:00 20,6 15,3 2 1 NE 1029,2 -
15.10.2017 11:00:00 20,1 16,7 0 0 N 1029,2 -
15.10.2017 10:00:00 18,1 17,2 4 2 NW 1029,1 -
15.10.2017 09:00:00 14,7 14,6 0 0 N 1028,9 -
15.10.2017 08:00:00 13,2 12,2 0 0 N 1028,7 0,0
15.10.2017 07:00:00 13,6 12,8 0 0 N 1028,4 -
15.10.2017 06:00:00 14,0 13,5 0 0 N 1028,4 -
15.10.2017 05:00:00 14,4 14,2 0 0 N 1028,2 -
15.10.2017 04:00:00 14,5 14,3 0 0 N 1028,3 -
15.10.2017 03:00:00 14,5 14,0 0 0 N 1028,7 -
15.10.2017 02:00:00 14,5 13,5 0 0 N 1028,6 0,0
15.10.2017 01:00:00 15,1 14,1 0 0 N 1028,6 -
15.10.2017 00:00:00 15,7 14,5 0 0 N 1028,6 -
14.10.2017 23:00:00 16,1 14,9 0 0 N 1028,6 -
14.10.2017 22:00:00 16,6 15,2 0 0 N 1028,5 -
14.10.2017 21:00:00 16,9 14,7 0 0 N 1028,3 -
14.10.2017 20:00:00 18,0 15,6 0 0 N 1027,6 0,0
14.10.2017 19:00:00 19,6 16,2 0 0 N 1027,0 -
14.10.2017 18:00:00 21,6 19,3 4 2 WNW 1026,7 -
14.10.2017 17:00:00 22,1 18,6 5 3 NNE 1026,7 -
14.10.2017 16:00:00 21,8 18,3 8 4 NNE 1026,7 -
14.10.2017 15:00:00 22,0 17,1 5 3 NNE 1027,0 -
14.10.2017 14:00:00 21,7 15,5 5 3 NNE 1027,5 0,0
14.10.2017 13:00:00 21,3 13,6 0 0 N 1028,1 -
14.10.2017 12:00:00 20,0 14,3 4 2 NNE 1028,5 -
14.10.2017 11:00:00 19,4 14,6 13 7 N 1028,3 -
14.10.2017 10:00:00 18,0 16,4 8 4 NW 1028,0 -
14.10.2017 09:00:00 15,3 14,9 0 0 N 1027,8 -
14.10.2017 08:00:00 14,7 13,4 0 0 N 1027,3 0,0
14.10.2017 07:00:00 15,5 15,4 9 5 NNW 1027,1 -
14.10.2017 06:00:00 13,7 13,6 0 0 N 1026,9 -
14.10.2017 05:00:00 14,1 13,9 0 0 N 1026,9 -
14.10.2017 04:00:00 14,3 13,9 0 0 N 1027,1 -
14.10.2017 03:00:00 14,7 14,3 0 0 N 1027,3 -
14.10.2017 02:00:00 15,0 14,5 0 0 N 1027,0 0,0
14.10.2017 01:00:00 15,5 14,8 0 0 N 1027,0 -
14.10.2017 00:00:00 16,0 15,5 0 0 N 1026,9 -
13.10.2017 23:00:00 15,9 14,7 0 0 N 1026,9 -
13.10.2017 22:00:00 16,2 14,5 0 0 N 1026,5 -
13.10.2017 21:00:00 16,9 14,7 0 0 N 1026,0 -
13.10.2017 20:00:00 18,0 15,4 0 0 N 1025,7 0,0
13.10.2017 19:00:00 19,5 16,1 0 0 N 1025,2 -
13.10.2017 18:00:00 21,4 19,1 5 3 WNW 1024,9 -
13.10.2017 17:00:00 21,8 19,3 2 1 N 1024,9 -
13.10.2017 16:00:00 21,5 17,4 2 1 NNE 1025,3 -
13.10.2017 15:00:00 21,5 17,0 5 3 NNE 1025,7 -
13.10.2017 14:00:00 21,7 17,0 4 2 ENE 1026,5 0,0
13.10.2017 13:00:00 20,8 15,9 4 2 NNW 1027,2 -
13.10.2017 12:00:00 19,4 15,2 2 1 N 1027,7 -
13.10.2017 11:00:00 18,8 15,4 4 2 N 1027,6 -
13.10.2017 10:00:00 18,1 16,5 8 4 NNW 1027,3 -
13.10.2017 09:00:00 17,1 16,9 13 7 NNW 1026,7 -
13.10.2017 08:00:00 15,6 15,5 11 6 NW 1026,4 0,0
13.10.2017 07:00:00 14,2 14,1 0 0 N 1026,2 -
13.10.2017 06:00:00 14,3 14,2 4 2 WNW 1026,0 -
13.10.2017 05:00:00 14,2 13,8 0 0 N 1025,9 -
13.10.2017 04:00:00 14,7 14,6 0 0 N 1025,8 -
13.10.2017 03:00:00 14,7 14,3 0 0 N 1026,0 -
13.10.2017 02:00:00 15,0 14,6 0 0 N 1026,0 0,0
13.10.2017 01:00:00 15,0 14,3 0 0 N 1026,1 -
13.10.2017 00:00:00 15,6 14,7 0 0 N 1026,3 -
12.10.2017 23:00:00 16,0 14,8 0 0 N 1026,2 -
12.10.2017 22:00:00 16,4 14,7 0 0 N 1025,9 -
12.10.2017 21:00:00 17,2 14,8 0 0 N 1025,4 -
12.10.2017 20:00:00 18,7 15,3 0 0 N 1025,0 0,0
12.10.2017 19:00:00 20,2 16,4 0 0 N 1024,5 -
12.10.2017 18:00:00 22,8 18,5 0 0 N 1024,1 -
12.10.2017 17:00:00 23,6 16,3 2 1 W 1023,7 -
12.10.2017 16:00:00 24,1 15,2 5 3 SSW 1023,8 -
12.10.2017 15:00:00 22,5 17,3 4 2 N 1023,9 -
12.10.2017 14:00:00 21,3 17,4 8 4 NE 1024,4 0,0
12.10.2017 13:00:00 20,4 15,7 0 0 N 1024,7 -
12.10.2017 12:00:00 20,1 16,7 0 0 N 1024,7 -
12.10.2017 11:00:00 19,3 16,8 0 0 N 1024,8 -
12.10.2017 10:00:00 17,3 17,2 0 0 N 1024,4 -
12.10.2017 09:00:00 14,7 14,6 0 0 N 1024,3 -
12.10.2017 08:00:00 13,4 13,3 0 0 N 1023,6 0,0
12.10.2017 07:00:00 13,5 13,4 0 0 N 1023,2 -
12.10.2017 06:00:00 13,9 13,8 0 0 N 1023,2 -
12.10.2017 05:00:00 14,0 13,9 0 0 N 1023,0 -
12.10.2017 04:00:00 14,3 14,2 0 0 N 1023,2 -
12.10.2017 03:00:00 14,1 13,6 0 0 N 1023,3 -
12.10.2017 02:00:00 14,8 14,3 0 0 N 1023,6 0,0
12.10.2017 01:00:00 15,3 14,6 0 0 N 1023,5 -
12.10.2017 00:00:00 15,9 15,0 0 0 N 1023,6 -
11.10.2017 23:00:00 15,9 14,4 0 0 N 1023,6 -
11.10.2017 22:00:00 16,5 14,6 0 0 N 1023,5 -
11.10.2017 21:00:00 17,3 14,9 0 0 N 1023,2 -
11.10.2017 20:00:00 18,5 15,1 0 0 N 1022,8 0,0
11.10.2017 19:00:00 20,7 16,2 0 0 N 1022,3 -
11.10.2017 18:00:00 22,3 15,8 2 1 SSE 1022,1 -
11.10.2017 17:00:00 22,5 16,0 4 2 SSE 1021,8 -

tt = Température de l'air
td = dewpoint
ff = Vitesse du vent
dd = Direction du vent
ppp = reduced air pressure
rr = Quantités de précipitations

stations d'obs. à proximité